sensor_id;sensor_type;location;lat;lon;timestamp;pressure;altitude;pressure_sealevel;temperature;humidity
56992;BME280;42885;49.754;18.636;2024-01-15T00:00:42;96616.87;;;4.14;60.08
56992;BME280;42885;49.754;18.636;2024-01-15T00:03:15;96606.23;;;4.26;59.91
56992;BME280;42885;49.754;18.636;2024-01-15T00:05:46;96605.30;;;4.27;59.94
56992;BME280;42885;49.754;18.636;2024-01-15T00:08:17;96596.05;;;4.37;59.90
56992;BME280;42885;49.754;18.636;2024-01-15T00:10:48;96593.83;;;4.38;60.08
56992;BME280;42885;49.754;18.636;2024-01-15T00:13:19;96607.99;;;4.40;60.25
56992;BME280;42885;49.754;18.636;2024-01-15T00:15:51;96602.97;;;4.44;59.95
56992;BME280;42885;49.754;18.636;2024-01-15T00:18:22;96604.91;;;4.48;59.88
56992;BME280;42885;49.754;18.636;2024-01-15T00:20:54;96593.10;;;4.36;60.12
56992;BME280;42885;49.754;18.636;2024-01-15T00:23:26;96589.09;;;4.45;59.85
56992;BME280;42885;49.754;18.636;2024-01-15T00:25:57;96577.98;;;4.50;59.51
56992;BME280;42885;49.754;18.636;2024-01-15T00:28:28;96576.13;;;4.52;59.15
56992;BME280;42885;49.754;18.636;2024-01-15T00:31:00;96573.27;;;4.43;59.49
56992;BME280;42885;49.754;18.636;2024-01-15T00:33:31;96583.91;;;4.45;59.33
56992;BME280;42885;49.754;18.636;2024-01-15T00:36:03;96574.20;;;4.41;59.31
56992;BME280;42885;49.754;18.636;2024-01-15T00:38:34;96578.08;;;4.41;59.36
56992;BME280;42885;49.754;18.636;2024-01-15T00:41:05;96573.78;;;4.62;58.79
56992;BME280;42885;49.754;18.636;2024-01-15T00:43:36;96569.83;;;4.57;58.66
56992;BME280;42885;49.754;18.636;2024-01-15T00:46:07;96568.39;;;4.65;58.32
56992;BME280;42885;49.754;18.636;2024-01-15T00:48:39;96555.23;;;4.68;58.19
56992;BME280;42885;49.754;18.636;2024-01-15T00:51:10;96548.37;;;4.75;57.87
56992;BME280;42885;49.754;18.636;2024-01-15T00:53:42;96542.27;;;4.68;57.82
56992;BME280;42885;49.754;18.636;2024-01-15T00:56:13;96550.17;;;4.67;57.75
56992;BME280;42885;49.754;18.636;2024-01-15T00:58:44;96546.58;;;4.62;57.96
56992;BME280;42885;49.754;18.636;2024-01-15T01:01:15;96545.58;;;4.58;57.81
56992;BME280;42885;49.754;18.636;2024-01-15T01:03:46;96543.65;;;4.54;57.94
56992;BME280;42885;49.754;18.636;2024-01-15T01:06:17;96549.89;;;4.64;57.56
56992;BME280;42885;49.754;18.636;2024-01-15T01:08:48;96544.09;;;4.53;57.69
56992;BME280;42885;49.754;18.636;2024-01-15T01:11:19;96541.42;;;4.55;57.51
56992;BME280;42885;49.754;18.636;2024-01-15T01:13:50;96537.05;;;4.55;57.65
56992;BME280;42885;49.754;18.636;2024-01-15T01:16:21;96532.35;;;4.55;57.59
56992;BME280;42885;49.754;18.636;2024-01-15T01:18:52;96530.46;;;4.64;57.02
56992;BME280;42885;49.754;18.636;2024-01-15T01:21:23;96527.91;;;4.77;56.63
56992;BME280;42885;49.754;18.636;2024-01-15T01:23:54;96517.30;;;4.67;56.60
56992;BME280;42885;49.754;18.636;2024-01-15T01:26:25;96511.57;;;4.70;56.40
56992;BME280;42885;49.754;18.636;2024-01-15T01:28:56;96508.34;;;4.66;56.43
56992;BME280;42885;49.754;18.636;2024-01-15T01:31:28;96505.13;;;4.62;56.39
56992;BME280;42885;49.754;18.636;2024-01-15T01:33:59;96502.47;;;4.57;56.30
56992;BME280;42885;49.754;18.636;2024-01-15T01:36:31;96499.09;;;4.62;56.27
56992;BME280;42885;49.754;18.636;2024-01-15T01:39:03;96491.23;;;4.63;56.15
56992;BME280;42885;49.754;18.636;2024-01-15T01:41:34;96495.20;;;4.62;56.34
56992;BME280;42885;49.754;18.636;2024-01-15T01:44:06;96496.47;;;4.69;55.79
56992;BME280;42885;49.754;18.636;2024-01-15T01:46:38;96490.30;;;4.64;56.36
56992;BME280;42885;49.754;18.636;2024-01-15T01:49:10;96494.70;;;4.57;56.11
56992;BME280;42885;49.754;18.636;2024-01-15T01:51:41;96481.14;;;4.99;55.69
56992;BME280;42885;49.754;18.636;2024-01-15T01:54:13;96482.52;;;4.64;55.70
56992;BME280;42885;49.754;18.636;2024-01-15T01:56:44;96469.56;;;4.64;55.77
56992;BME280;42885;49.754;18.636;2024-01-15T01:59:17;96459.02;;;4.60;55.75
56992;BME280;42885;49.754;18.636;2024-01-15T02:01:49;96459.51;;;4.60;55.94
56992;BME280;42885;49.754;18.636;2024-01-15T02:04:23;96460.64;;;4.68;55.67
56992;BME280;42885;49.754;18.636;2024-01-15T02:06:55;96458.95;;;4.75;55.25
56992;BME280;42885;49.754;18.636;2024-01-15T02:09:26;96452.76;;;4.90;55.20
56992;BME280;42885;49.754;18.636;2024-01-15T02:11:57;96453.16;;;4.84;54.96
56992;BME280;42885;49.754;18.636;2024-01-15T02:14:29;96444.39;;;4.79;55.21
56992;BME280;42885;49.754;18.636;2024-01-15T02:17:00;96453.62;;;4.71;55.36
56992;BME280;42885;49.754;18.636;2024-01-15T02:19:31;96453.62;;;4.71;55.36
56992;BME280;42885;49.754;18.636;2024-01-15T02:22:03;96443.27;;;4.71;55.02
56992;BME280;42885;49.754;18.636;2024-01-15T02:24:34;96447.83;;;4.80;54.74
56992;BME280;42885;49.754;18.636;2024-01-15T02:27:05;96441.86;;;4.52;54.83
56992;BME280;42885;49.754;18.636;2024-01-15T02:29:36;96428.50;;;4.58;54.86
56992;BME280;42885;49.754;18.636;2024-01-15T02:32:09;96417.61;;;4.73;54.64
56992;BME280;42885;49.754;18.636;2024-01-15T02:34:40;96421.36;;;4.62;54.84
56992;BME280;42885;49.754;18.636;2024-01-15T02:37:12;96422.16;;;4.57;54.52
56992;BME280;42885;49.754;18.636;2024-01-15T02:39:43;96428.95;;;4.65;54.49
56992;BME280;42885;49.754;18.636;2024-01-15T02:42:14;96429.69;;;4.80;54.58
56992;BME280;42885;49.754;18.636;2024-01-15T02:44:45;96424.55;;;4.73;54.37
56992;BME280;42885;49.754;18.636;2024-01-15T02:47:16;96425.54;;;4.90;54.29
56992;BME280;42885;49.754;18.636;2024-01-15T02:49:47;96417.45;;;4.82;54.31
56992;BME280;42885;49.754;18.636;2024-01-15T02:52:18;96416.02;;;4.78;54.31
56992;BME280;42885;49.754;18.636;2024-01-15T02:54:49;96413.55;;;4.69;54.34
56992;BME280;42885;49.754;18.636;2024-01-15T02:57:20;96412.84;;;4.80;54.35
56992;BME280;42885;49.754;18.636;2024-01-15T02:59:51;96410.27;;;4.47;54.76
56992;BME280;42885;49.754;18.636;2024-01-15T03:02:23;96404.22;;;4.66;54.75
56992;BME280;42885;49.754;18.636;2024-01-15T03:04:54;96416.14;;;4.69;54.81
56992;BME280;42885;49.754;18.636;2024-01-15T03:07:25;96406.03;;;4.59;54.80
56992;BME280;42885;49.754;18.636;2024-01-15T03:09:56;96406.30;;;4.61;54.70
56992;BME280;42885;49.754;18.636;2024-01-15T03:12:27;96398.84;;;4.57;54.79
56992;BME280;42885;49.754;18.636;2024-01-15T03:14:59;96397.15;;;4.55;54.83
56992;BME280;42885;49.754;18.636;2024-01-15T03:17:30;96394.84;;;4.71;54.48
56992;BME280;42885;49.754;18.636;2024-01-15T03:20:01;96389.70;;;4.64;54.27
56992;BME280;42885;49.754;18.636;2024-01-15T03:22:33;96392.52;;;4.74;54.56
56992;BME280;42885;49.754;18.636;2024-01-15T03:25:05;96387.81;;;4.73;54.34
56992;BME280;42885;49.754;18.636;2024-01-15T03:27:38;96380.27;;;4.76;54.49
56992;BME280;42885;49.754;18.636;2024-01-15T03:30:09;96375.35;;;4.65;54.44
56992;BME280;42885;49.754;18.636;2024-01-15T03:32:40;96372.35;;;4.59;54.63
56992;BME280;42885;49.754;18.636;2024-01-15T03:35:11;96370.89;;;4.67;54.90
56992;BME280;42885;49.754;18.636;2024-01-15T03:37:42;96363.38;;;4.57;54.91
56992;BME280;42885;49.754;18.636;2024-01-15T03:40:14;96355.81;;;4.41;55.47
56992;BME280;42885;49.754;18.636;2024-01-15T03:42:46;96364.52;;;4.40;55.51
56992;BME280;42885;49.754;18.636;2024-01-15T03:45:17;96359.13;;;4.43;55.51
56992;BME280;42885;49.754;18.636;2024-01-15T03:47:48;96359.84;;;4.45;55.37
56992;BME280;42885;49.754;18.636;2024-01-15T03:50:19;96340.63;;;4.42;55.60
56992;BME280;42885;49.754;18.636;2024-01-15T03:52:50;96345.50;;;4.47;55.42
56992;BME280;42885;49.754;18.636;2024-01-15T03:55:22;96347.83;;;4.44;55.41
56992;BME280;42885;49.754;18.636;2024-01-15T03:57:53;96342.70;;;4.50;55.56
56992;BME280;42885;49.754;18.636;2024-01-15T04:00:24;96353.72;;;4.46;55.53
56992;BME280;42885;49.754;18.636;2024-01-15T04:02:55;96352.42;;;4.46;55.53
56992;BME280;42885;49.754;18.636;2024-01-15T04:05:27;96356.66;;;4.34;55.85
56992;BME280;42885;49.754;18.636;2024-01-15T04:07:58;96347.20;;;4.40;55.83
56992;BME280;42885;49.754;18.636;2024-01-15T04:10:29;96342.06;;;4.46;55.62
56992;BME280;42885;49.754;18.636;2024-01-15T04:13:01;96337.20;;;4.41;55.65
56992;BME280;42885;49.754;18.636;2024-01-15T04:15:33;96334.42;;;4.45;55.58
56992;BME280;42885;49.754;18.636;2024-01-15T04:18:06;96337.46;;;4.44;55.82
56992;BME280;42885;49.754;18.636;2024-01-15T04:20:38;96326.38;;;4.42;55.60
56992;BME280;42885;49.754;18.636;2024-01-15T04:23:09;96325.18;;;4.40;55.63
56992;BME280;42885;49.754;18.636;2024-01-15T04:25:40;96332.73;;;4.44;55.45
56992;BME280;42885;49.754;18.636;2024-01-15T04:28:12;96323.26;;;4.37;55.79
56992;BME280;42885;49.754;18.636;2024-01-15T04:30:43;96339.83;;;4.34;56.14
56992;BME280;42885;49.754;18.636;2024-01-15T04:33:15;96325.39;;;4.37;56.50
56992;BME280;42885;49.754;18.636;2024-01-15T04:35:46;96339.28;;;4.36;56.60
56992;BME280;42885;49.754;18.636;2024-01-15T04:38:17;96341.13;;;4.34;56.81
56992;BME280;42885;49.754;18.636;2024-01-15T04:40:48;96341.48;;;4.35;57.19
56992;BME280;42885;49.754;18.636;2024-01-15T04:43:19;96328.28;;;4.20;57.76
56992;BME280;42885;49.754;18.636;2024-01-15T04:45:50;96319.88;;;4.16;57.79
56992;BME280;42885;49.754;18.636;2024-01-15T04:48:21;96319.13;;;4.14;57.93
56992;BME280;42885;49.754;18.636;2024-01-15T04:50:52;96315.06;;;4.17;58.02
56992;BME280;42885;49.754;18.636;2024-01-15T04:53:24;96320.24;;;4.17;57.65
56992;BME280;42885;49.754;18.636;2024-01-15T04:55:55;96319.20;;;4.07;57.98
56992;BME280;42885;49.754;18.636;2024-01-15T04:58:26;96307.98;;;4.26;57.74
56992;BME280;42885;49.754;18.636;2024-01-15T05:00:57;96304.89;;;4.14;57.71
56992;BME280;42885;49.754;18.636;2024-01-15T05:03:28;96301.80;;;4.09;58.08
56992;BME280;42885;49.754;18.636;2024-01-15T05:05:59;96300.65;;;4.13;58.01
56992;BME280;42885;49.754;18.636;2024-01-15T05:08:31;96290.16;;;4.22;57.46
56992;BME280;42885;49.754;18.636;2024-01-15T05:11:02;96302.39;;;4.20;57.53
56992;BME280;42885;49.754;18.636;2024-01-15T05:13:33;96304.00;;;4.28;57.36
56992;BME280;42885;49.754;18.636;2024-01-15T05:16:05;96297.39;;;4.17;57.38
56992;BME280;42885;49.754;18.636;2024-01-15T05:18:36;96296.58;;;4.16;57.71
56992;BME280;42885;49.754;18.636;2024-01-15T05:21:08;96293.24;;;4.14;57.55
56992;BME280;42885;49.754;18.636;2024-01-15T05:23:39;96275.24;;;4.12;57.70
56992;BME280;42885;49.754;18.636;2024-01-15T05:26:10;96288.37;;;4.09;58.02
56992;BME280;42885;49.754;18.636;2024-01-15T05:28:43;96287.16;;;4.15;57.99
56992;BME280;42885;49.754;18.636;2024-01-15T05:31:15;96281.18;;;4.07;58.00
56992;BME280;42885;49.754;18.636;2024-01-15T05:33:46;96276.88;;;4.01;58.08
56992;BME280;42885;49.754;18.636;2024-01-15T05:36:18;96265.23;;;4.01;57.75
56992;BME280;42885;49.754;18.636;2024-01-15T05:38:49;96257.30;;;4.09;57.87
56992;BME280;42885;49.754;18.636;2024-01-15T05:41:21;96259.27;;;4.06;57.81
56992;BME280;42885;49.754;18.636;2024-01-15T05:43:52;96240.84;;;4.10;57.67
56992;BME280;42885;49.754;18.636;2024-01-15T05:46:23;96243.23;;;4.13;57.54
56992;BME280;42885;49.754;18.636;2024-01-15T05:48:54;96242.26;;;4.22;57.53
56992;BME280;42885;49.754;18.636;2024-01-15T05:51:25;96250.02;;;3.96;58.19
56992;BME280;42885;49.754;18.636;2024-01-15T05:53:56;96231.36;;;3.91;58.34
56992;BME280;42885;49.754;18.636;2024-01-15T05:56:27;96250.55;;;3.94;58.36
56992;BME280;42885;49.754;18.636;2024-01-15T05:58:58;96251.66;;;3.97;58.17
56992;BME280;42885;49.754;18.636;2024-01-15T06:01:29;96242.61;;;3.97;58.45
56992;BME280;42885;49.754;18.636;2024-01-15T06:04:00;96250.31;;;3.91;58.60
56992;BME280;42885;49.754;18.636;2024-01-15T06:06:32;96249.22;;;4.01;58.87
56992;BME280;42885;49.754;18.636;2024-01-15T06:09:03;96245.55;;;3.98;58.77
56992;BME280;42885;49.754;18.636;2024-01-15T06:11:38;96248.66;;;3.90;58.87
56992;BME280;42885;49.754;18.636;2024-01-15T06:14:09;96253.89;;;3.96;58.63
56992;BME280;42885;49.754;18.636;2024-01-15T06:16:41;96265.22;;;3.88;58.98
56992;BME280;42885;49.754;18.636;2024-01-15T06:19:12;96256.94;;;3.95;59.07
56992;BME280;42885;49.754;18.636;2024-01-15T06:21:43;96257.30;;;3.96;58.82
56992;BME280;42885;49.754;18.636;2024-01-15T06:24:17;96258.31;;;3.94;58.84
56992;BME280;42885;49.754;18.636;2024-01-15T06:26:50;96239.52;;;3.84;59.15
56992;BME280;42885;49.754;18.636;2024-01-15T06:29:25;96242.28;;;3.89;58.83
56992;BME280;42885;49.754;18.636;2024-01-15T06:31:55;96253.09;;;3.88;59.68
56992;BME280;42885;49.754;18.636;2024-01-15T06:34:26;96254.72;;;3.76;59.54
56992;BME280;42885;49.754;18.636;2024-01-15T06:36:58;96257.23;;;3.91;59.58
56992;BME280;42885;49.754;18.636;2024-01-15T06:39:29;96243.73;;;3.72;60.42
56992;BME280;42885;49.754;18.636;2024-01-15T06:42:00;96251.38;;;3.61;60.66
56992;BME280;42885;49.754;18.636;2024-01-15T06:44:31;96275.80;;;3.57;60.79
56992;BME280;42885;49.754;18.636;2024-01-15T06:47:02;96273.48;;;3.52;61.20
56992;BME280;42885;49.754;18.636;2024-01-15T06:49:33;96275.56;;;3.67;60.80
56992;BME280;42885;49.754;18.636;2024-01-15T06:52:05;96281.48;;;3.62;61.03
56992;BME280;42885;49.754;18.636;2024-01-15T06:54:36;96283.33;;;3.67;60.94
56992;BME280;42885;49.754;18.636;2024-01-15T06:57:08;96281.04;;;3.63;60.89
56992;BME280;42885;49.754;18.636;2024-01-15T06:59:38;96295.15;;;3.64;60.75
56992;BME280;42885;49.754;18.636;2024-01-15T07:02:10;96282.97;;;3.66;61.03
56992;BME280;42885;49.754;18.636;2024-01-15T07:04:42;96307.08;;;3.60;61.22
56992;BME280;42885;49.754;18.636;2024-01-15T07:07:13;96311.23;;;3.62;61.63
56992;BME280;42885;49.754;18.636;2024-01-15T07:09:44;96316.89;;;3.62;61.48
56992;BME280;42885;49.754;18.636;2024-01-15T07:12:15;96311.13;;;3.71;61.04
56992;BME280;42885;49.754;18.636;2024-01-15T07:14:46;96320.95;;;3.58;61.26
56992;BME280;42885;49.754;18.636;2024-01-15T07:17:17;96322.17;;;3.53;60.92
56992;BME280;42885;49.754;18.636;2024-01-15T07:19:48;96309.29;;;3.66;60.79
56992;BME280;42885;49.754;18.636;2024-01-15T07:22:19;96310.90;;;3.54;61.13
56992;BME280;42885;49.754;18.636;2024-01-15T07:24:50;96306.49;;;3.69;60.68
56992;BME280;42885;49.754;18.636;2024-01-15T07:27:22;96324.21;;;3.48;60.27
56992;BME280;42885;49.754;18.636;2024-01-15T07:29:53;96312.37;;;3.58;60.00
56992;BME280;42885;49.754;18.636;2024-01-15T07:32:25;96304.72;;;3.49;59.73
56992;BME280;42885;49.754;18.636;2024-01-15T07:34:56;96283.73;;;3.54;59.05
56992;BME280;42885;49.754;18.636;2024-01-15T07:37:29;96261.48;;;3.51;58.89
56992;BME280;42885;49.754;18.636;2024-01-15T07:40:00;96291.98;;;3.53;58.84
56992;BME280;42885;49.754;18.636;2024-01-15T07:42:33;96307.67;;;3.50;58.48
56992;BME280;42885;49.754;18.636;2024-01-15T07:45:05;96312.05;;;3.42;58.63
56992;BME280;42885;49.754;18.636;2024-01-15T07:47:36;96312.40;;;3.51;58.24
56992;BME280;42885;49.754;18.636;2024-01-15T07:50:07;96299.34;;;3.52;58.28
56992;BME280;42885;49.754;18.636;2024-01-15T07:52:40;96301.03;;;3.53;57.97
56992;BME280;42885;49.754;18.636;2024-01-15T07:55:11;96305.02;;;3.72;57.84
56992;BME280;42885;49.754;18.636;2024-01-15T07:57:43;96302.61;;;3.69;57.49
56992;BME280;42885;49.754;18.636;2024-01-15T08:00:15;96301.10;;;3.59;57.40
56992;BME280;42885;49.754;18.636;2024-01-15T08:02:47;96313.08;;;3.67;57.29
56992;BME280;42885;49.754;18.636;2024-01-15T08:05:18;96305.06;;;3.57;57.67
56992;BME280;42885;49.754;18.636;2024-01-15T08:07:50;96324.60;;;3.69;57.26
56992;BME280;42885;49.754;18.636;2024-01-15T08:10:21;96371.63;;;3.76;57.25
56992;BME280;42885;49.754;18.636;2024-01-15T08:12:52;96350.02;;;3.69;56.82
56992;BME280;42885;49.754;18.636;2024-01-15T08:15:23;96334.92;;;3.76;56.98
56992;BME280;42885;49.754;18.636;2024-01-15T08:17:54;96347.80;;;3.70;56.66
56992;BME280;42885;49.754;18.636;2024-01-15T08:20:25;96340.33;;;3.66;56.67
56992;BME280;42885;49.754;18.636;2024-01-15T08:22:56;96358.33;;;3.75;56.67
56992;BME280;42885;49.754;18.636;2024-01-15T08:25:27;96354.48;;;4.15;56.05
56992;BME280;42885;49.754;18.636;2024-01-15T08:27:58;96367.09;;;4.07;55.97
56992;BME280;42885;49.754;18.636;2024-01-15T08:30:29;96382.20;;;3.85;56.41
56992;BME280;42885;49.754;18.636;2024-01-15T08:33:01;96377.62;;;3.76;56.00
56992;BME280;42885;49.754;18.636;2024-01-15T08:35:32;96367.61;;;3.84;56.21
56992;BME280;42885;49.754;18.636;2024-01-15T08:38:03;96376.95;;;3.87;56.30
56992;BME280;42885;49.754;18.636;2024-01-15T08:40:34;96375.84;;;3.91;56.05
56992;BME280;42885;49.754;18.636;2024-01-15T08:43:05;96393.06;;;4.05;55.92
56992;BME280;42885;49.754;18.636;2024-01-15T08:45:36;96395.33;;;3.90;55.68
56992;BME280;42885;49.754;18.636;2024-01-15T08:48:07;96397.58;;;3.81;56.00
56992;BME280;42885;49.754;18.636;2024-01-15T08:50:38;96386.94;;;3.86;55.61
56992;BME280;42885;49.754;18.636;2024-01-15T08:53:09;96396.73;;;3.81;55.55
56992;BME280;42885;49.754;18.636;2024-01-15T08:55:41;96398.63;;;3.99;55.75
56992;BME280;42885;49.754;18.636;2024-01-15T08:58:14;96388.54;;;3.74;55.94
56992;BME280;42885;49.754;18.636;2024-01-15T09:00:46;96398.42;;;4.02;55.00
56992;BME280;42885;49.754;18.636;2024-01-15T09:03:17;96390.81;;;4.13;55.03
56992;BME280;42885;49.754;18.636;2024-01-15T09:05:48;96403.48;;;4.11;55.39
56992;BME280;42885;49.754;18.636;2024-01-15T09:08:19;96407.12;;;4.41;54.42
56992;BME280;42885;49.754;18.636;2024-01-15T09:10:50;96397.88;;;4.45;54.14
56992;BME280;42885;49.754;18.636;2024-01-15T09:13:21;96398.22;;;4.12;55.37
56992;BME280;42885;49.754;18.636;2024-01-15T09:15:52;96388.45;;;3.76;55.71
56992;BME280;42885;49.754;18.636;2024-01-15T09:18:23;96378.73;;;3.79;55.75
56992;BME280;42885;49.754;18.636;2024-01-15T09:20:54;96378.33;;;3.85;55.83
56992;BME280;42885;49.754;18.636;2024-01-15T09:23:25;96371.91;;;3.78;56.15
56992;BME280;42885;49.754;18.636;2024-01-15T09:25:56;96380.53;;;3.92;55.84
56992;BME280;42885;49.754;18.636;2024-01-15T09:28:27;96382.41;;;3.82;56.23
56992;BME280;42885;49.754;18.636;2024-01-15T09:30:58;96379.28;;;4.05;56.02
56992;BME280;42885;49.754;18.636;2024-01-15T09:33:29;96379.63;;;3.85;55.94
56992;BME280;42885;49.754;18.636;2024-01-15T09:36:04;96388.20;;;3.93;55.82
56992;BME280;42885;49.754;18.636;2024-01-15T09:38:35;96381.15;;;4.23;55.93
56992;BME280;42885;49.754;18.636;2024-01-15T09:41:07;96373.88;;;3.95;56.10
56992;BME280;42885;49.754;18.636;2024-01-15T09:43:38;96392.80;;;4.23;56.05
56992;BME280;42885;49.754;18.636;2024-01-15T09:46:10;96377.05;;;4.26;55.36
56992;BME280;42885;49.754;18.636;2024-01-15T09:48:42;96390.03;;;4.19;55.85
56992;BME280;42885;49.754;18.636;2024-01-15T09:51:13;96389.70;;;4.10;55.72
56992;BME280;42885;49.754;18.636;2024-01-15T09:53:46;96399.89;;;4.06;56.28
56992;BME280;42885;49.754;18.636;2024-01-15T09:56:18;96400.33;;;4.33;55.87
56992;BME280;42885;49.754;18.636;2024-01-15T09:58:49;96398.25;;;4.25;55.56
56992;BME280;42885;49.754;18.636;2024-01-15T10:01:23;96397.28;;;4.13;55.54
56992;BME280;42885;49.754;18.636;2024-01-15T10:03:55;96399.00;;;4.40;55.48
56992;BME280;42885;49.754;18.636;2024-01-15T10:06:29;96397.31;;;4.47;55.23
56992;BME280;42885;49.754;18.636;2024-01-15T10:09:00;96395.31;;;4.58;54.34
56992;BME280;42885;49.754;18.636;2024-01-15T10:11:33;96403.94;;;4.10;54.94
56992;BME280;42885;49.754;18.636;2024-01-15T10:14:05;96399.18;;;3.69;55.72
56992;BME280;42885;49.754;18.636;2024-01-15T10:16:37;96419.72;;;3.65;56.47
56992;BME280;42885;49.754;18.636;2024-01-15T10:19:09;96424.78;;;3.60;56.65
56992;BME280;42885;49.754;18.636;2024-01-15T10:21:40;96412.66;;;3.82;56.42
56992;BME280;42885;49.754;18.636;2024-01-15T10:24:12;96403.98;;;3.68;56.63
56992;BME280;42885;49.754;18.636;2024-01-15T10:26:43;96398.92;;;3.52;57.04
56992;BME280;42885;49.754;18.636;2024-01-15T10:29:15;96386.97;;;3.37;57.07
56992;BME280;42885;49.754;18.636;2024-01-15T10:31:47;96384.61;;;3.54;56.85
56992;BME280;42885;49.754;18.636;2024-01-15T10:34:19;96393.63;;;3.76;56.60
56992;BME280;42885;49.754;18.636;2024-01-15T10:36:50;96386.34;;;3.95;56.25
56992;BME280;42885;49.754;18.636;2024-01-15T10:39:27;96406.45;;;3.77;56.21
56992;BME280;42885;49.754;18.636;2024-01-15T10:41:59;96392.68;;;3.84;56.17
56992;BME280;42885;49.754;18.636;2024-01-15T10:44:30;96388.46;;;4.23;55.13
56992;BME280;42885;49.754;18.636;2024-01-15T10:47:01;96384.06;;;4.77;54.93
56992;BME280;42885;49.754;18.636;2024-01-15T10:49:32;96380.96;;;4.39;55.02
56992;BME280;42885;49.754;18.636;2024-01-15T10:52:03;96391.74;;;4.33;54.62
56992;BME280;42885;49.754;18.636;2024-01-15T10:54:54;96393.56;;;4.51;54.99
56992;BME280;42885;49.754;18.636;2024-01-15T10:57:26;96400.91;;;4.64;54.27
56992;BME280;42885;49.754;18.636;2024-01-15T10:59:58;96405.17;;;5.49;52.88
56992;BME280;42885;49.754;18.636;2024-01-15T11:02:29;96405.17;;;5.49;52.88
56992;BME280;42885;49.754;18.636;2024-01-15T11:05:01;96394.78;;;4.65;53.53
56992;BME280;42885;49.754;18.636;2024-01-15T11:07:32;96413.52;;;4.43;54.36
56992;BME280;42885;49.754;18.636;2024-01-15T11:10:06;96399.23;;;4.50;54.46
56992;BME280;42885;49.754;18.636;2024-01-15T11:12:41;96394.66;;;4.41;54.85
56992;BME280;42885;49.754;18.636;2024-01-15T11:15:16;96385.03;;;4.23;54.65
56992;BME280;42885;49.754;18.636;2024-01-15T11:18:01;96382.98;;;5.88;51.26
56992;BME280;42885;49.754;18.636;2024-01-15T11:23:50;96368.44;;;7.55;47.05
56992;BME280;42885;49.754;18.636;2024-01-15T11:26:45;96367.02;;;6.88;46.52
56992;BME280;42885;49.754;18.636;2024-01-15T11:29:36;96369.38;;;8.79;44.89
56992;BME280;42885;49.754;18.636;2024-01-15T11:32:08;96373.89;;;8.23;44.84
56992;BME280;42885;49.754;18.636;2024-01-15T11:35:00;96369.00;;;8.63;44.21
56992;BME280;42885;49.754;18.636;2024-01-15T11:37:15;96373.47;;;6.60;47.94
56992;BME280;42885;49.754;18.636;2024-01-15T11:39:47;96379.74;;;5.60;49.93
56992;BME280;42885;49.754;18.636;2024-01-15T11:42:20;96390.59;;;4.70;52.00
56992;BME280;42885;49.754;18.636;2024-01-15T11:44:52;96388.08;;;4.55;52.75
56992;BME280;42885;49.754;18.636;2024-01-15T11:50:04;96381.05;;;5.41;51.90
56992;BME280;42885;49.754;18.636;2024-01-15T11:52:37;96384.95;;;4.96;51.85
56992;BME280;42885;49.754;18.636;2024-01-15T11:55:28;96370.70;;;5.28;51.41
56992;BME280;42885;49.754;18.636;2024-01-15T11:58:01;96372.67;;;5.24;51.28
56992;BME280;42885;49.754;18.636;2024-01-15T12:00:33;96368.52;;;5.22;51.82
56992;BME280;42885;49.754;18.636;2024-01-15T12:03:05;96361.52;;;4.98;52.00
56992;BME280;42885;49.754;18.636;2024-01-15T12:05:38;96366.33;;;4.84;52.68
56992;BME280;42885;49.754;18.636;2024-01-15T12:08:10;96366.19;;;4.93;52.15
56992;BME280;42885;49.754;18.636;2024-01-15T12:10:41;96371.20;;;4.76;52.74
56992;BME280;42885;49.754;18.636;2024-01-15T12:13:14;96370.53;;;4.79;52.53
56992;BME280;42885;49.754;18.636;2024-01-15T12:15:47;96381.20;;;4.62;53.00
56992;BME280;42885;49.754;18.636;2024-01-15T12:18:19;96375.86;;;4.45;53.50
56992;BME280;42885;49.754;18.636;2024-01-15T12:20:50;96370.19;;;4.32;53.78
56992;BME280;42885;49.754;18.636;2024-01-15T12:23:21;96367.42;;;4.48;53.35
56992;BME280;42885;49.754;18.636;2024-01-15T12:25:54;96377.31;;;4.62;53.17
56992;BME280;42885;49.754;18.636;2024-01-15T12:28:27;96382.90;;;4.55;52.67
56992;BME280;42885;49.754;18.636;2024-01-15T12:30:59;96381.24;;;4.54;52.33
56992;BME280;42885;49.754;18.636;2024-01-15T12:33:33;96389.83;;;4.75;52.59
56992;BME280;42885;49.754;18.636;2024-01-15T12:36:04;96389.03;;;4.34;52.26
56992;BME280;42885;49.754;18.636;2024-01-15T12:38:36;96387.61;;;4.43;52.55
56992;BME280;42885;49.754;18.636;2024-01-15T12:41:07;96388.55;;;4.22;52.14
56992;BME280;42885;49.754;18.636;2024-01-15T12:43:38;96383.09;;;3.99;52.59
56992;BME280;42885;49.754;18.636;2024-01-15T12:46:10;96375.79;;;3.78;53.10
56992;BME280;42885;49.754;18.636;2024-01-15T12:48:42;96367.02;;;3.94;52.59
56992;BME280;42885;49.754;18.636;2024-01-15T12:51:13;96375.20;;;3.88;53.07
56992;BME280;42885;49.754;18.636;2024-01-15T12:53:45;96371.06;;;3.78;53.22
56992;BME280;42885;49.754;18.636;2024-01-15T12:56:16;96375.88;;;4.04;53.03
56992;BME280;42885;49.754;18.636;2024-01-15T12:58:51;96375.42;;;3.97;53.39
56992;BME280;42885;49.754;18.636;2024-01-15T13:01:22;96371.23;;;4.02;53.44
56992;BME280;42885;49.754;18.636;2024-01-15T13:03:52;96358.78;;;4.02;53.18
56992;BME280;42885;49.754;18.636;2024-01-15T13:06:23;96352.27;;;4.29;52.85
56992;BME280;42885;49.754;18.636;2024-01-15T13:08:55;96356.81;;;4.25;53.13
56992;BME280;42885;49.754;18.636;2024-01-15T13:11:26;96357.30;;;4.51;52.95
56992;BME280;42885;49.754;18.636;2024-01-15T13:13:58;96356.20;;;4.35;52.99
56992;BME280;42885;49.754;18.636;2024-01-15T13:16:29;96354.16;;;4.40;53.60
56992;BME280;42885;49.754;18.636;2024-01-15T13:19:00;96348.09;;;4.47;53.25
56992;BME280;42885;49.754;18.636;2024-01-15T13:21:31;96347.06;;;4.49;53.10
56992;BME280;42885;49.754;18.636;2024-01-15T13:24:02;96352.09;;;4.05;54.41
56992;BME280;42885;49.754;18.636;2024-01-15T13:26:35;96350.35;;;4.05;54.54
56992;BME280;42885;49.754;18.636;2024-01-15T13:29:06;96349.92;;;3.98;55.12